createdAt,value
2018-07-28T00:01:54.006Z,5.47
2018-07-28T00:04:21.490Z,4.50
2018-07-28T00:06:49.075Z,4.47
2018-07-28T00:09:16.502Z,5.53
2018-07-28T00:11:44.089Z,4.97
2018-07-28T00:14:11.494Z,5.60
2018-07-28T00:16:38.950Z,5.08
2018-07-28T00:19:06.560Z,5.50
2018-07-28T00:21:34.050Z,8.88
2018-07-28T00:24:01.516Z,4.72
2018-07-28T00:26:29.069Z,5.05
2018-07-28T00:28:56.557Z,5.30
2018-07-28T00:31:23.998Z,7.25
2018-07-28T00:33:51.561Z,5.05
2018-07-28T00:36:19.030Z,5.03
2018-07-28T00:38:46.518Z,5.17
2018-07-28T00:41:14.058Z,5.05
2018-07-28T00:43:41.510Z,5.47
2018-07-28T00:46:08.966Z,5.25
2018-07-28T00:48:36.402Z,6.70
2018-07-28T00:51:03.851Z,6.30
2018-07-28T00:53:31.372Z,6.30
2018-07-28T00:55:58.805Z,8.40
2018-07-28T00:58:26.297Z,8.48
2018-07-28T01:00:53.783Z,9.73
2018-07-28T01:03:21.298Z,5.85
2018-07-28T01:05:48.772Z,6.08
2018-07-28T01:08:16.298Z,6.50
2018-07-28T01:10:43.736Z,5.00
2018-07-28T01:13:11.151Z,5.60
2018-07-28T01:15:38.553Z,5.70
2018-07-28T01:18:05.987Z,5.47
2018-07-28T01:20:33.393Z,6.03
2018-07-28T01:23:00.816Z,7.97
2018-07-28T01:25:28.293Z,8.00
2018-07-28T01:27:55.801Z,6.00
2018-07-28T01:30:26.941Z,5.97
2018-07-28T01:32:54.366Z,5.92
2018-07-28T01:35:21.825Z,6.15
2018-07-28T01:37:49.236Z,6.70
2018-07-28T01:40:16.655Z,11.15
2018-07-28T01:42:44.102Z,6.67
2018-07-28T01:45:11.543Z,6.25
2018-07-28T01:47:38.973Z,7.42
2018-07-28T01:50:06.866Z,8.30
2018-07-28T01:52:34.353Z,5.45
2018-07-28T01:55:01.803Z,6.33
2018-07-28T01:57:29.233Z,10.65
2018-07-28T01:59:56.727Z,6.08
2018-07-28T02:02:24.231Z,6.67
2018-07-28T02:04:51.666Z,6.15
2018-07-28T02:07:19.086Z,6.10
2018-07-28T02:09:46.506Z,6.60
2018-07-28T02:12:13.947Z,6.17
2018-07-28T02:14:41.356Z,6.47
2018-07-28T02:17:08.751Z,6.00
2018-07-28T02:19:36.170Z,6.20
2018-07-28T02:22:03.606Z,6.53
2018-07-28T02:24:31.066Z,6.85
2018-07-28T02:26:58.482Z,9.95
2018-07-28T02:29:25.915Z,11.43
2018-07-28T02:31:53.391Z,6.75
2018-07-28T02:34:20.910Z,6.40
2018-07-28T02:36:48.335Z,6.53
2018-07-28T02:39:15.738Z,7.22
2018-07-28T02:41:43.155Z,7.00
2018-07-28T02:44:10.579Z,6.80
2018-07-28T02:46:38.293Z,6.60
2018-07-28T02:49:05.867Z,6.42
2018-07-28T02:51:33.337Z,8.90
2018-07-28T02:54:00.741Z,7.55
2018-07-28T02:56:28.215Z,6.60
2018-07-28T02:58:55.689Z,6.33
2018-07-28T03:01:23.165Z,6.92
2018-07-28T03:03:50.587Z,7.47
2018-07-28T03:06:18.059Z,7.15
2018-07-28T03:08:45.555Z,10.93
2018-07-28T03:11:12.999Z,7.05
2018-07-28T03:13:40.426Z,7.78
2018-07-28T03:16:10.746Z,8.73
2018-07-28T03:18:38.326Z,6.58
2018-07-28T03:21:05.777Z,6.97
2018-07-28T03:23:33.236Z,6.65
2018-07-28T03:26:00.684Z,7.58
2018-07-28T03:28:28.149Z,7.05
2018-07-28T03:30:55.625Z,6.42
2018-07-28T03:33:23.122Z,7.42
2018-07-28T03:35:50.591Z,8.53
2018-07-28T03:38:18.034Z,7.55
2018-07-28T03:40:45.458Z,7.67
2018-07-28T03:43:12.984Z,6.80
2018-07-28T03:45:40.403Z,8.73
2018-07-28T03:48:07.887Z,7.97
2018-07-28T03:50:35.350Z,6.95
2018-07-28T03:53:02.877Z,6.42
2018-07-28T03:55:30.281Z,8.55
2018-07-28T03:57:57.743Z,8.20
2018-07-28T04:00:25.164Z,6.95
2018-07-28T04:02:52.624Z,7.05
2018-07-28T04:05:20.053Z,7.40
2018-07-28T04:07:47.514Z,8.78
2018-07-28T04:10:14.925Z,7.10
2018-07-28T04:12:42.439Z,13.25
2018-07-28T04:15:11.611Z,10.18
2018-07-28T04:17:43.890Z,6.37
2018-07-28T04:20:11.340Z,7.45
2018-07-28T04:22:38.782Z,6.20
2018-07-28T04:25:06.233Z,8.25
2018-07-28T04:27:33.673Z,8.88
2018-07-28T04:30:01.085Z,9.05
2018-07-28T04:32:28.573Z,7.12
2018-07-28T04:34:55.977Z,10.43
2018-07-28T04:37:23.383Z,7.87
2018-07-28T04:39:50.813Z,7.45
2018-07-28T04:42:18.302Z,10.53
2018-07-28T04:44:45.734Z,8.98
2018-07-28T04:47:13.146Z,7.87
2018-07-28T04:49:40.563Z,7.72
2018-07-28T04:52:07.999Z,7.80
2018-07-28T04:54:35.421Z,14.18
2018-07-28T04:57:02.890Z,6.58
2018-07-28T04:59:30.349Z,7.40
2018-07-28T05:01:57.751Z,6.72
2018-07-28T05:04:25.219Z,7.40
2018-07-28T05:06:52.698Z,7.40
2018-07-28T05:09:20.164Z,7.40
2018-07-28T05:11:47.662Z,8.28
2018-07-28T05:14:15.090Z,8.00
2018-07-28T05:16:42.506Z,7.75
2018-07-28T05:19:10.737Z,13.15
2018-07-28T05:21:38.609Z,8.30
2018-07-28T05:24:06.138Z,8.03
2018-07-28T05:26:33.587Z,8.20
2018-07-28T05:29:01.166Z,9.38
2018-07-28T05:31:28.598Z,7.40
2018-07-28T05:33:56.086Z,8.45
2018-07-28T05:36:23.555Z,7.17
2018-07-28T05:38:51.037Z,10.10
2018-07-28T05:41:18.439Z,7.80
2018-07-28T05:43:45.925Z,7.05
2018-07-28T05:46:13.418Z,7.65
2018-07-28T05:48:41.104Z,9.30
2018-07-28T05:51:08.515Z,10.72
2018-07-28T05:53:38.341Z,12.10
2018-07-28T05:56:06.480Z,8.15
2018-07-28T05:58:33.918Z,6.78
2018-07-28T06:01:01.353Z,6.58
2018-07-28T06:03:28.800Z,6.80
2018-07-28T06:05:56.282Z,7.12
2018-07-28T06:08:23.686Z,6.25
2018-07-28T06:10:51.270Z,8.73
2018-07-28T06:13:18.625Z,7.40
2018-07-28T06:15:46.192Z,7.33
2018-07-28T06:18:13.621Z,7.00
2018-07-28T06:20:41.034Z,10.98
2018-07-28T06:23:08.495Z,6.08
2018-07-28T06:25:35.930Z,7.95
2018-07-28T06:28:03.354Z,11.10
2018-07-28T06:30:30.914Z,7.47
2018-07-28T06:32:58.329Z,7.08
2018-07-28T06:35:25.791Z,8.95
2018-07-28T06:37:53.283Z,8.35
2018-07-28T06:40:20.725Z,10.85
2018-07-28T06:42:48.212Z,7.45
2018-07-28T06:45:15.598Z,9.18
2018-07-28T06:47:43.014Z,7.65
2018-07-28T06:50:10.556Z,11.55
2018-07-28T06:52:38.003Z,6.90
2018-07-28T06:55:05.565Z,7.70
2018-07-28T06:57:33.010Z,7.75
2018-07-28T07:00:00.609Z,7.47
2018-07-28T07:02:28.014Z,10.20
2018-07-28T07:04:55.516Z,6.65
2018-07-28T07:07:23.435Z,6.78
2018-07-28T07:09:50.897Z,9.28
2018-07-28T07:12:18.350Z,10.00
2018-07-28T07:14:45.826Z,11.18
2018-07-28T07:17:13.287Z,6.72
2018-07-28T07:19:40.702Z,6.65
2018-07-28T07:22:08.197Z,7.28
2018-07-28T07:24:35.674Z,6.62
2018-07-28T07:27:03.101Z,5.70
2018-07-28T07:29:30.538Z,6.40
2018-07-28T07:31:57.994Z,9.45
2018-07-28T07:34:25.454Z,11.25
2018-07-28T07:36:52.894Z,8.95
2018-07-28T07:39:20.370Z,10.82
2018-07-28T07:41:47.875Z,5.78
2018-07-28T07:44:15.255Z,8.38
2018-07-28T07:46:42.687Z,5.97
2018-07-28T07:49:10.421Z,10.30
2018-07-28T07:51:37.809Z,5.58
2018-07-28T07:54:05.242Z,6.12
2018-07-28T07:56:32.921Z,8.83
2018-07-28T07:59:00.369Z,12.13
2018-07-28T08:01:27.813Z,6.05
2018-07-28T08:03:55.270Z,12.40
2018-07-28T08:06:22.745Z,8.15
2018-07-28T08:08:51.362Z,6.00
2018-07-28T08:11:19.103Z,10.45
2018-07-28T08:13:46.538Z,5.60
2018-07-28T08:16:13.950Z,5.45
2018-07-28T08:18:41.361Z,5.83
2018-07-28T08:21:08.818Z,5.53
2018-07-28T08:23:36.286Z,6.95
2018-07-28T08:26:03.842Z,5.65
2018-07-28T08:28:31.307Z,4.87
2018-07-28T08:30:58.717Z,9.10
2018-07-28T08:33:26.198Z,8.88
2018-07-28T08:35:53.626Z,5.28
2018-07-28T08:38:21.108Z,9.85
2018-07-28T08:40:48.562Z,7.60
2018-07-28T08:43:16.005Z,5.47
2018-07-28T08:45:43.431Z,5.53
2018-07-28T08:48:10.848Z,6.35
2018-07-28T08:50:38.395Z,10.78
2018-07-28T08:53:05.912Z,6.47
2018-07-28T08:55:33.446Z,8.73
2018-07-28T08:58:00.963Z,5.55
2018-07-28T09:00:28.495Z,6.50
2018-07-28T09:02:55.965Z,5.17
2018-07-28T09:05:24.659Z,9.05
2018-07-28T09:07:52.093Z,8.95
2018-07-28T09:10:19.799Z,5.17
2018-07-28T09:12:47.239Z,5.70
2018-07-28T09:15:14.695Z,11.70
2018-07-28T09:17:42.243Z,6.03
2018-07-28T09:20:09.732Z,9.10
2018-07-28T09:22:37.433Z,5.85
2018-07-28T09:25:05.127Z,5.67
2018-07-28T09:27:32.595Z,8.05
2018-07-28T09:30:00.051Z,6.80
2018-07-28T09:32:27.926Z,6.72
2018-07-28T09:34:56.787Z,7.17
2018-07-28T09:37:24.478Z,5.25
2018-07-28T09:39:51.988Z,10.95
2018-07-28T09:42:19.430Z,6.58
2018-07-28T09:44:46.861Z,5.47
2018-07-28T09:47:14.502Z,6.67
2018-07-28T09:49:41.947Z,6.80
2018-07-28T09:52:09.398Z,5.67
2018-07-28T09:54:36.844Z,5.97
2018-07-28T09:57:04.348Z,8.60
2018-07-28T09:59:31.866Z,16.75
2018-07-28T10:01:59.274Z,4.70
2018-07-28T10:04:26.746Z,8.35
2018-07-28T10:06:54.294Z,9.10
2018-07-28T10:09:21.733Z,4.70
2018-07-28T10:11:49.122Z,5.60
2018-07-28T10:14:16.527Z,5.53
2018-07-28T10:16:43.986Z,5.17
2018-07-28T10:19:11.426Z,6.90
2018-07-28T10:21:39.045Z,9.38
2018-07-28T10:24:06.550Z,10.65
2018-07-28T10:26:34.018Z,4.53
2018-07-28T10:29:01.551Z,5.37
2018-07-28T10:31:29.092Z,4.72
2018-07-28T10:33:56.534Z,4.67
2018-07-28T10:36:24.127Z,6.00
2018-07-28T10:38:51.526Z,4.45
2018-07-28T10:41:19.161Z,5.15
2018-07-28T10:43:46.616Z,8.10
2018-07-28T10:46:17.146Z,8.43
2018-07-28T10:48:44.598Z,4.72
2018-07-28T10:51:12.004Z,9.78
2018-07-28T10:53:39.678Z,5.45
2018-07-28T10:56:07.178Z,5.37
2018-07-28T10:58:34.625Z,5.85
2018-07-28T11:01:02.173Z,4.87
2018-07-28T11:03:29.607Z,8.48
2018-07-28T11:05:57.096Z,7.08
2018-07-28T11:08:24.611Z,5.47
2018-07-28T11:10:52.165Z,4.03
2018-07-28T11:13:19.566Z,4.50
2018-07-28T11:15:47.090Z,7.75
2018-07-28T11:18:14.549Z,5.42
2018-07-28T11:20:41.973Z,3.92
2018-07-28T11:23:09.461Z,6.42
2018-07-28T11:25:36.858Z,4.45
2018-07-28T11:28:04.302Z,6.37
2018-07-28T11:30:31.829Z,10.55
2018-07-28T11:33:04.979Z,3.52
2018-07-28T11:36:38.633Z,5.45
2018-07-28T11:39:11.787Z,6.12
2018-07-28T11:41:44.843Z,4.00
2018-07-28T11:44:18.088Z,3.05
2018-07-28T11:46:45.646Z,2.27
2018-07-28T11:49:13.122Z,1.90
2018-07-28T11:51:40.589Z,2.55
2018-07-28T11:54:08.048Z,2.15
2018-07-28T11:56:35.547Z,2.02
2018-07-28T11:59:03.206Z,7.90
2018-07-28T12:01:30.651Z,3.35
2018-07-28T12:03:59.155Z,4.15
2018-07-28T12:06:26.645Z,2.35
2018-07-28T12:08:54.180Z,2.92
2018-07-28T12:11:21.612Z,2.77
2018-07-28T12:13:49.178Z,1.92
2018-07-28T12:16:16.686Z,2.02
2018-07-28T12:18:44.146Z,3.10
2018-07-28T12:21:11.856Z,5.83
2018-07-28T12:23:39.403Z,1.90
2018-07-28T12:26:06.935Z,2.67
2018-07-28T12:28:34.461Z,3.05
2018-07-28T12:31:01.945Z,2.00
2018-07-28T12:33:29.514Z,2.80
2018-07-28T12:35:56.964Z,2.40
2018-07-28T12:38:24.397Z,6.17
2018-07-28T12:40:51.882Z,2.83
2018-07-28T12:43:19.615Z,2.05
2018-07-28T12:45:47.108Z,2.75
2018-07-28T12:48:14.558Z,1.92
2018-07-28T12:50:42.070Z,3.62
2018-07-28T12:53:09.563Z,2.37
2018-07-28T12:55:37.054Z,3.17
2018-07-28T12:58:04.509Z,2.37
2018-07-28T13:00:32.010Z,2.20
2018-07-28T13:02:59.501Z,2.67
2018-07-28T13:05:26.953Z,3.10
2018-07-28T13:07:54.437Z,4.72
2018-07-28T13:10:21.958Z,1.77
2018-07-28T13:12:49.379Z,1.57
2018-07-28T13:15:16.819Z,5.58
2018-07-28T13:17:44.360Z,5.30
2018-07-28T13:20:11.839Z,3.17
2018-07-28T13:22:39.314Z,2.33
2018-07-28T13:25:06.762Z,2.12
2018-07-28T13:27:34.202Z,3.65
2018-07-28T13:30:01.663Z,2.67
2018-07-28T13:32:29.101Z,2.80
2018-07-28T13:34:56.530Z,3.00
2018-07-28T13:37:23.938Z,10.20
2018-07-28T13:39:51.385Z,5.17
2018-07-28T13:42:18.822Z,4.67
2018-07-28T13:44:46.225Z,2.77
2018-07-28T13:47:13.647Z,3.98
2018-07-28T13:49:41.158Z,5.58
2018-07-28T13:52:08.628Z,8.80
2018-07-28T13:54:36.031Z,4.28
2018-07-28T13:57:03.493Z,3.40
2018-07-28T13:59:30.931Z,3.77
2018-07-28T14:01:58.368Z,3.65
2018-07-28T14:04:25.805Z,5.30
2018-07-28T14:06:53.197Z,4.17
2018-07-28T14:09:20.709Z,4.53
2018-07-28T14:11:48.395Z,4.05
2018-07-28T14:14:15.821Z,4.37
2018-07-28T14:16:43.295Z,9.70
2018-07-28T14:19:10.702Z,5.05
2018-07-28T14:21:38.116Z,5.10
2018-07-28T14:24:05.768Z,4.80
2018-07-28T14:26:33.254Z,6.87
2018-07-28T14:29:00.711Z,5.70
2018-07-28T14:31:28.577Z,11.25
2018-07-28T14:33:56.238Z,7.60
2018-07-28T14:36:23.642Z,6.12
2018-07-28T14:38:51.130Z,6.40
2018-07-28T14:41:18.641Z,6.50
2018-07-28T14:43:46.093Z,5.17
2018-07-28T14:46:13.578Z,8.08
2018-07-28T14:48:41.292Z,4.70
2018-07-28T14:51:08.986Z,12.10
2018-07-28T14:53:36.718Z,4.72
2018-07-28T14:56:04.550Z,5.78
2018-07-28T14:58:32.148Z,5.17
2018-07-28T15:00:59.895Z,5.10
2018-07-28T15:03:27.487Z,5.22
2018-07-28T15:05:54.945Z,6.33
2018-07-28T15:08:22.397Z,5.83
2018-07-28T15:10:49.908Z,5.65
2018-07-28T15:13:17.402Z,5.85
2018-07-28T15:15:45.066Z,5.60
2018-07-28T15:18:13.075Z,5.33
2018-07-28T15:20:40.832Z,5.90
2018-07-28T15:23:08.313Z,5.42
2018-07-28T15:25:35.717Z,5.72
2018-07-28T15:28:03.467Z,7.78
2018-07-28T15:30:30.963Z,5.92
2018-07-28T15:32:59.854Z,7.92
2018-07-28T15:35:27.352Z,6.37
2018-07-28T15:37:54.765Z,5.70
2018-07-28T15:40:22.303Z,6.55
2018-07-28T15:42:49.858Z,5.50
2018-07-28T15:45:17.330Z,8.93
2018-07-28T15:47:44.925Z,6.33
2018-07-28T15:50:12.357Z,7.60
2018-07-28T15:52:39.822Z,4.75
2018-07-28T15:55:07.277Z,7.10
2018-07-28T15:57:34.861Z,5.35
2018-07-28T16:00:03.303Z,4.70
2018-07-28T16:02:30.906Z,4.90
2018-07-28T16:04:58.301Z,4.95
2018-07-28T16:07:25.719Z,8.33
2018-07-28T16:09:53.219Z,8.00
2018-07-28T16:12:21.882Z,6.92
2018-07-28T16:14:49.333Z,6.45
2018-07-28T16:17:16.786Z,5.53
2018-07-28T16:19:44.218Z,5.67
2018-07-28T16:22:11.819Z,6.90
2018-07-28T16:24:39.284Z,5.75
2018-07-28T16:27:06.761Z,6.37
2018-07-28T16:29:34.358Z,5.33
2018-07-28T16:32:01.782Z,5.33
2018-07-28T16:34:30.175Z,4.90
2018-07-28T16:36:57.602Z,5.03
2018-07-28T16:39:27.016Z,6.50
2018-07-28T16:41:55.442Z,8.98
2018-07-28T16:44:23.169Z,5.25
2018-07-28T16:46:50.803Z,5.03
2018-07-28T16:49:18.217Z,4.10
2018-07-28T16:51:45.767Z,4.78
2018-07-28T16:54:13.248Z,11.80
2018-07-28T16:56:40.683Z,4.35
2018-07-28T16:59:08.117Z,4.03
2018-07-28T17:01:35.581Z,4.53
2018-07-28T17:04:03.264Z,3.98
2018-07-28T17:06:30.790Z,5.50
2018-07-28T17:08:58.222Z,4.50
2018-07-28T17:11:25.679Z,3.80
2018-07-28T17:13:53.137Z,8.30
2018-07-28T17:16:20.522Z,12.00
2018-07-28T17:18:47.995Z,3.30
2018-07-28T17:21:15.444Z,3.45
2018-07-28T17:23:42.977Z,3.27
2018-07-28T17:26:10.525Z,3.40
2018-07-28T17:28:37.958Z,2.67
2018-07-28T17:31:05.411Z,3.35
2018-07-28T17:33:32.845Z,4.08
2018-07-28T17:36:00.434Z,2.40
2018-07-28T17:38:27.883Z,5.40
2018-07-28T17:40:55.383Z,3.33
2018-07-28T17:43:24.034Z,3.83
2018-07-28T17:45:51.633Z,2.52
2018-07-28T17:48:19.391Z,2.83
2018-07-28T17:50:46.796Z,6.37
2018-07-28T17:53:14.785Z,3.20
2018-07-28T17:55:42.255Z,3.12
2018-07-28T17:58:09.800Z,3.72
2018-07-28T18:00:37.220Z,3.72
2018-07-28T18:03:04.858Z,2.60
2018-07-28T18:05:32.329Z,3.12
2018-07-28T18:08:01.881Z,3.85
2018-07-28T18:10:29.369Z,3.58
2018-07-28T18:12:56.860Z,2.50
2018-07-28T18:15:24.377Z,3.02
2018-07-28T18:17:51.806Z,7.62
2018-07-28T18:20:19.250Z,5.03
2018-07-28T18:22:46.669Z,2.85
2018-07-28T18:25:14.565Z,3.20
2018-07-28T18:27:42.038Z,3.00
2018-07-28T18:30:09.627Z,5.33
2018-07-28T18:32:37.074Z,3.37
2018-07-28T18:35:04.998Z,3.87
2018-07-28T18:37:32.402Z,3.77
2018-07-28T18:39:59.840Z,5.37
2018-07-28T18:42:28.391Z,2.02
2018-07-28T18:44:56.045Z,4.37
2018-07-28T18:47:23.475Z,2.90
2018-07-28T18:49:50.873Z,4.50
2018-07-28T18:52:18.323Z,3.33
2018-07-28T18:54:45.781Z,2.33
2018-07-28T18:57:13.251Z,2.08
2018-07-28T18:59:40.685Z,5.83
2018-07-28T19:02:08.127Z,4.53
2018-07-28T19:04:35.624Z,1.80
2018-07-28T19:07:03.058Z,2.52
2018-07-28T19:09:36.061Z,2.75
2018-07-28T19:12:04.100Z,3.98
2018-07-28T19:14:34.541Z,1.92
2018-07-28T19:17:02.004Z,2.98
2018-07-28T19:19:29.458Z,3.40
2018-07-28T19:21:57.031Z,4.45
2018-07-28T19:24:24.646Z,1.98
2018-07-28T19:26:52.179Z,1.70
2018-07-28T19:29:25.146Z,2.27
2018-07-28T19:31:52.591Z,2.22
2018-07-28T19:34:20.020Z,2.42
2018-07-28T19:36:53.261Z,4.25
2018-07-28T19:39:20.864Z,2.30
2018-07-28T19:41:53.942Z,1.90
2018-07-28T19:44:21.452Z,2.10
2018-07-28T19:46:48.987Z,1.90
2018-07-28T19:49:16.469Z,4.62
2018-07-28T19:51:44.042Z,1.92
2018-07-28T19:54:11.464Z,2.67
2018-07-28T19:56:38.914Z,2.10
2018-07-28T19:59:06.437Z,2.20
2018-07-28T20:01:34.109Z,3.80
2018-07-28T20:04:01.750Z,3.75
2018-07-28T20:06:29.215Z,2.12
2018-07-28T20:08:56.850Z,6.58
2018-07-28T20:11:24.369Z,2.37
2018-07-28T20:13:52.026Z,6.70
2018-07-28T20:16:19.463Z,6.42
2018-07-28T20:18:47.075Z,1.72
2018-07-28T20:21:14.598Z,4.58
2018-07-28T20:23:42.047Z,4.50
2018-07-28T20:26:09.451Z,3.20
2018-07-28T20:28:36.897Z,2.33
2018-07-28T20:31:04.395Z,1.77
2018-07-28T20:33:31.801Z,1.95
2018-07-28T20:35:59.320Z,2.60
2018-07-28T20:38:26.807Z,2.25
2018-07-28T20:40:54.215Z,1.87
2018-07-28T20:43:21.682Z,2.65
2018-07-28T20:45:49.358Z,2.27
2018-07-28T20:48:16.819Z,5.42
2018-07-28T20:50:44.231Z,4.00
2018-07-28T20:53:11.673Z,2.77
2018-07-28T20:55:39.077Z,1.77
2018-07-28T20:58:06.514Z,2.08
2018-07-28T21:00:34.493Z,1.57
2018-07-28T21:03:01.983Z,1.62
2018-07-28T21:05:29.597Z,4.33
2018-07-28T21:07:57.127Z,6.08
2018-07-28T21:10:25.820Z,2.70
2018-07-28T21:12:53.457Z,2.25
2018-07-28T21:15:20.967Z,2.00
2018-07-28T21:17:48.730Z,3.83
2018-07-28T21:20:16.417Z,1.10
2018-07-28T21:22:44.168Z,1.35
2018-07-28T21:25:11.673Z,2.30
2018-07-28T21:27:39.205Z,1.35
2018-07-28T21:30:06.911Z,1.32
2018-07-28T21:32:34.495Z,1.20
2018-07-28T21:35:01.974Z,1.02
2018-07-28T21:37:29.459Z,1.57
2018-07-28T21:39:56.870Z,1.42
2018-07-28T21:42:24.306Z,1.45
2018-07-28T21:44:52.256Z,1.20
2018-07-28T21:47:19.922Z,7.42
2018-07-28T21:49:47.337Z,3.33
2018-07-28T21:52:14.943Z,3.22
2018-07-28T21:54:42.567Z,1.37
2018-07-28T21:57:10.484Z,1.70
2018-07-28T21:59:38.343Z,3.37
2018-07-28T22:02:06.576Z,1.62
2018-07-28T22:04:36.178Z,2.30
2018-07-28T22:07:03.686Z,2.52
2018-07-28T22:09:31.250Z,1.12
2018-07-28T22:11:58.792Z,2.90
2018-07-28T22:14:26.697Z,1.67
2018-07-28T22:16:54.260Z,3.40
2018-07-28T22:19:21.743Z,2.00
2018-07-28T22:21:49.253Z,1.02
2018-07-28T22:24:17.263Z,1.90
2018-07-28T22:26:45.420Z,1.15
2018-07-28T22:29:12.913Z,1.87
2018-07-28T22:31:40.385Z,4.40
2018-07-28T22:34:07.961Z,1.98
2018-07-28T22:36:35.553Z,5.20
2018-07-28T22:39:04.388Z,1.82
2018-07-28T22:41:31.778Z,1.92
2018-07-28T22:43:59.247Z,2.35
2018-07-28T22:46:26.770Z,2.70
2018-07-28T22:48:54.169Z,1.85
2018-07-28T22:51:21.718Z,4.60
2018-07-28T22:53:49.158Z,2.02
2018-07-28T22:56:16.656Z,1.47
2018-07-28T22:58:44.367Z,3.47
2018-07-28T23:01:12.027Z,2.52
2018-07-28T23:03:39.518Z,1.50
2018-07-28T23:06:06.990Z,5.97
2018-07-28T23:08:34.458Z,2.30
2018-07-28T23:11:02.272Z,1.52
2018-07-28T23:13:30.082Z,2.17
2018-07-28T23:15:57.866Z,4.00
2018-07-28T23:18:25.288Z,1.57
2018-07-28T23:20:52.855Z,1.57
2018-07-28T23:23:20.273Z,2.70
2018-07-28T23:25:47.709Z,2.10
2018-07-28T23:28:15.115Z,2.55
2018-07-28T23:30:42.540Z,1.30
2018-07-28T23:33:10.018Z,1.95
2018-07-28T23:35:37.557Z,1.60
2018-07-28T23:38:04.998Z,5.47
2018-07-28T23:40:32.403Z,1.87
2018-07-28T23:42:59.965Z,1.72
2018-07-28T23:45:27.374Z,2.87
2018-07-28T23:47:55.030Z,2.02
2018-07-28T23:50:22.427Z,2.08
2018-07-28T23:52:49.850Z,1.62
2018-07-28T23:55:17.262Z,2.20
2018-07-28T23:57:45.339Z,1.92
